createdAt,value
2019-04-03T00:01:44.049Z,7.03
2019-04-03T00:04:15.438Z,14.33
2019-04-03T00:06:46.643Z,11.60
2019-04-03T00:09:17.887Z,10.20
2019-04-03T00:11:49.650Z,11.65
2019-04-03T00:14:20.930Z,12.00
2019-04-03T00:16:52.169Z,8.18
2019-04-03T00:19:23.424Z,9.90
2019-04-03T00:21:54.670Z,12.13
2019-04-03T00:24:25.931Z,9.53
2019-04-03T00:26:57.148Z,10.90
2019-04-03T00:29:28.384Z,12.05
2019-04-03T00:31:59.718Z,11.95
2019-04-03T00:34:30.941Z,11.57
2019-04-03T00:37:02.190Z,13.43
2019-04-03T00:39:34.572Z,14.25
2019-04-03T00:42:05.859Z,9.28
2019-04-03T00:44:37.159Z,10.10
2019-04-03T00:47:08.385Z,11.43
2019-04-03T00:49:39.648Z,7.45
2019-04-03T00:52:10.898Z,11.63
2019-04-03T00:54:42.178Z,11.28
2019-04-03T00:57:13.387Z,14.43
2019-04-03T00:59:44.701Z,12.40
2019-04-03T01:02:16.461Z,9.38
2019-04-03T01:04:48.292Z,11.73
2019-04-03T01:07:19.519Z,9.90
2019-04-03T01:09:50.889Z,12.75
2019-04-03T01:12:22.124Z,14.87
2019-04-03T01:14:53.350Z,10.28
2019-04-03T01:17:24.800Z,9.53
2019-04-03T01:19:56.169Z,17.10
2019-04-03T01:22:27.391Z,8.25
2019-04-03T01:24:58.636Z,25.72
2019-04-03T01:27:29.904Z,14.15
2019-04-03T01:30:01.132Z,10.60
2019-04-03T01:32:33.907Z,10.63
2019-04-03T01:35:05.876Z,8.60
2019-04-03T01:37:37.070Z,6.78
2019-04-03T01:40:08.363Z,19.77
2019-04-03T01:42:39.595Z,7.80
2019-04-03T01:45:10.884Z,11.22
2019-04-03T01:47:42.159Z,9.73
2019-04-03T01:50:13.535Z,10.68
2019-04-03T01:52:44.693Z,10.20
2019-04-03T01:55:15.850Z,13.93
2019-04-03T01:57:47.230Z,18.67
2019-04-03T02:00:18.406Z,8.80
2019-04-03T02:02:49.688Z,15.10
2019-04-03T02:05:20.969Z,9.18
2019-04-03T02:07:52.222Z,15.63
2019-04-03T02:10:23.450Z,10.18
2019-04-03T02:12:54.712Z,11.88
2019-04-03T02:15:26.091Z,15.78
2019-04-03T02:17:57.523Z,9.93
2019-04-03T02:20:28.718Z,13.83
2019-04-03T02:23:00.590Z,12.43
2019-04-03T02:25:32.325Z,14.38
2019-04-03T02:28:04.532Z,15.83
2019-04-03T02:30:36.194Z,16.95
2019-04-03T02:33:07.461Z,14.68
2019-04-03T02:35:40.082Z,21.35
2019-04-03T02:38:12.848Z,22.07
2019-04-03T02:40:44.079Z,16.93
2019-04-03T02:43:15.570Z,25.88
2019-04-03T02:45:47.052Z,15.63
2019-04-03T02:48:18.292Z,24.72
2019-04-03T02:50:49.667Z,22.80
2019-04-03T02:53:21.092Z,19.30
2019-04-03T02:55:52.336Z,24.77
2019-04-03T02:58:23.579Z,13.48
2019-04-03T03:00:54.807Z,16.17
2019-04-03T03:03:26.077Z,13.78
2019-04-03T03:06:00.672Z,18.48
2019-04-03T03:08:30.873Z,16.52
2019-04-03T03:11:03.396Z,14.47
2019-04-03T03:13:35.607Z,11.48
2019-04-03T03:16:07.069Z,15.05
2019-04-03T03:18:38.282Z,12.58
2019-04-03T03:21:12.834Z,14.73
2019-04-03T03:23:43.533Z,11.28
2019-04-03T03:26:14.770Z,13.50
2019-04-03T03:28:47.440Z,9.48
2019-04-03T03:31:19.539Z,18.20
2019-04-03T03:33:51.224Z,16.62
2019-04-03T03:36:25.471Z,16.50
2019-04-03T03:38:55.472Z,17.27
2019-04-03T03:41:26.669Z,11.10
2019-04-03T03:43:58.395Z,15.10
2019-04-03T03:49:02.000Z,10.03
2019-04-03T03:51:33.250Z,15.45
2019-04-03T03:54:04.475Z,13.58
2019-04-03T03:56:36.765Z,16.02
2019-04-03T03:59:08.154Z,16.17
2019-04-03T04:01:39.480Z,13.70
2019-04-03T04:04:14.263Z,20.30
2019-04-03T04:06:43.805Z,19.50
2019-04-03T04:09:17.228Z,18.90
2019-04-03T04:11:47.868Z,17.15
2019-04-03T04:14:22.521Z,17.95
2019-04-03T04:16:52.224Z,18.45
2019-04-03T04:19:23.599Z,16.20
2019-04-03T04:21:55.104Z,18.12
2019-04-03T04:24:28.035Z,21.10
2019-04-03T04:26:59.303Z,14.55
2019-04-03T04:29:32.191Z,16.05
2019-04-03T04:32:03.413Z,17.57
2019-04-03T04:34:34.718Z,17.62
2019-04-03T04:37:05.889Z,18.65
2019-04-03T04:39:37.072Z,18.02
2019-04-03T04:42:08.239Z,20.17
2019-04-03T04:44:41.211Z,15.67
2019-04-03T04:47:14.550Z,13.15
2019-04-03T04:49:45.754Z,18.45
2019-04-03T04:52:17.525Z,15.98
2019-04-03T04:54:48.841Z,14.23
2019-04-03T04:57:20.113Z,15.63
2019-04-03T04:59:51.407Z,15.25
2019-04-03T05:02:22.628Z,13.88
2019-04-03T05:04:56.081Z,11.55
2019-04-03T05:07:28.854Z,19.20
2019-04-03T05:10:02.195Z,13.40
2019-04-03T05:12:34.589Z,19.75
2019-04-03T05:15:06.740Z,26.30
2019-04-03T05:17:38.383Z,24.65
2019-04-03T05:20:09.713Z,21.48
2019-04-03T05:22:41.056Z,29.05
2019-04-03T05:25:12.289Z,35.85
2019-04-03T05:27:43.673Z,20.72
2019-04-03T05:30:28.946Z,32.38
2019-04-03T05:33:00.673Z,16.15
2019-04-03T05:35:31.873Z,14.60
2019-04-03T05:38:03.301Z,15.45
2019-04-03T05:40:35.450Z,16.95
2019-04-03T05:43:06.673Z,18.17
2019-04-03T05:45:40.707Z,20.70
2019-04-03T05:48:13.355Z,12.93
2019-04-03T05:50:44.065Z,14.55
2019-04-03T05:53:15.550Z,24.43
2019-04-03T05:55:47.081Z,17.50
2019-04-03T05:58:19.696Z,10.78
2019-04-03T06:01:03.615Z,16.23
2019-04-03T06:03:37.651Z,11.40
2019-04-03T06:05:58.040Z,10.03
2019-04-03T06:08:30.140Z,11.90
2019-04-03T06:11:03.453Z,16.37
2019-04-03T06:13:35.443Z,9.73
2019-04-03T06:16:06.707Z,13.45
2019-04-03T06:18:37.940Z,10.20
2019-04-03T06:21:09.416Z,11.45
2019-04-03T06:23:40.772Z,9.08
2019-04-03T06:26:12.285Z,14.38
2019-04-03T06:28:46.316Z,12.80
2019-04-03T06:31:16.746Z,20.90
2019-04-03T06:33:50.899Z,12.00
2019-04-03T06:36:20.998Z,11.63
2019-04-03T06:38:52.178Z,27.40
2019-04-03T06:41:23.900Z,13.65
2019-04-03T06:43:55.387Z,19.70
2019-04-03T06:46:28.475Z,8.83
2019-04-03T06:48:59.557Z,9.43
2019-04-03T06:51:30.734Z,10.68
2019-04-03T06:54:02.084Z,8.90
2019-04-03T06:56:33.336Z,7.95
2019-04-03T06:59:04.566Z,5.53
2019-04-03T07:01:36.024Z,5.28
2019-04-03T07:04:16.226Z,8.78
2019-04-03T10:55:08.259Z,7.12
2019-04-03T10:57:39.471Z,16.85
2019-04-03T11:00:12.316Z,9.78
2019-04-03T11:02:43.559Z,6.35
2019-04-03T11:05:15.114Z,3.95
2019-04-03T11:07:46.356Z,9.85
2019-04-03T11:10:17.716Z,8.20
2019-04-03T11:12:49.033Z,15.03
2019-04-03T11:15:38.972Z,18.90
2019-04-03T11:18:21.107Z,13.50
2019-04-03T11:20:52.912Z,15.55
2019-04-03T11:23:36.559Z,10.13
2019-04-03T11:25:57.340Z,5.83
2019-04-03T11:28:28.542Z,9.10
2019-04-03T11:31:01.173Z,10.55
2019-04-03T11:33:34.047Z,7.22
2019-04-03T11:36:05.474Z,5.12
2019-04-03T11:38:36.702Z,6.85
2019-04-03T11:41:18.328Z,13.20
2019-04-03T11:43:46.848Z,15.63
2019-04-03T11:46:18.485Z,13.18
2019-04-03T11:48:49.877Z,4.90
2019-04-03T11:51:21.098Z,13.18
2019-04-03T11:53:52.484Z,24.67
2019-04-03T11:56:23.928Z,8.43
2019-04-03T11:58:55.372Z,9.85
2019-04-03T12:01:28.821Z,11.97
2019-04-03T12:04:01.046Z,13.30
2019-04-03T12:06:32.418Z,5.65
2019-04-03T12:09:05.561Z,5.62
2019-04-03T12:11:38.728Z,4.35
2019-04-03T12:14:10.094Z,10.00
2019-04-03T12:16:42.733Z,11.00
2019-04-03T12:19:13.954Z,4.72
2019-04-03T12:21:45.097Z,6.20
2019-04-03T12:24:16.450Z,5.10
2019-04-03T12:26:47.792Z,5.37
2019-04-03T12:29:21.484Z,22.37
2019-04-03T12:31:52.406Z,24.70
2019-04-03T12:34:23.901Z,14.30
2019-04-03T12:36:55.280Z,7.78
2019-04-03T12:39:27.850Z,16.00
2019-04-03T12:41:59.607Z,18.00
2019-04-03T12:44:30.989Z,21.25
2019-04-03T12:47:03.047Z,9.73
2019-04-03T12:49:35.134Z,11.33
2019-04-03T12:52:06.640Z,6.28
2019-04-03T12:54:38.053Z,16.25
2019-04-03T12:57:09.419Z,12.85
2019-04-03T12:59:40.865Z,11.18
2019-04-03T13:02:13.752Z,11.48
2019-04-03T13:04:45.194Z,8.48
2019-04-03T13:07:16.429Z,10.50
2019-04-03T13:09:47.770Z,10.08
2019-04-03T13:12:22.115Z,8.70
2019-04-03T13:14:51.975Z,9.10
2019-04-03T13:17:23.527Z,10.65
2019-04-03T13:19:55.205Z,14.15
2019-04-03T13:22:27.970Z,8.55
2019-04-03T13:24:59.654Z,7.80
2019-04-03T13:27:31.764Z,10.18
2019-04-03T13:30:11.953Z,3.42
2019-04-03T13:32:42.281Z,6.97
2019-04-03T13:35:16.002Z,8.03
2019-04-03T13:37:46.528Z,6.03
2019-04-03T13:40:17.879Z,9.18
2019-04-03T13:42:49.632Z,14.28
2019-04-03T13:45:21.496Z,10.55
2019-04-03T13:47:53.281Z,9.93
2019-04-03T13:50:24.797Z,13.13
2019-04-03T13:52:56.125Z,10.78
2019-04-03T13:55:28.889Z,4.87
2019-04-03T13:58:00.741Z,11.20
2019-04-03T14:00:33.891Z,4.67
2019-04-03T14:03:05.770Z,6.50
2019-04-03T14:05:37.200Z,10.35
2019-04-03T14:08:08.533Z,10.88
2019-04-03T14:10:39.857Z,7.03
2019-04-03T14:13:12.430Z,10.88
2019-04-03T14:15:43.976Z,6.83
2019-04-03T14:18:15.391Z,6.53
2019-04-03T14:20:47.030Z,12.98
2019-04-03T14:25:49.269Z,11.65
2019-04-03T14:28:20.886Z,11.48
2019-04-03T14:30:52.243Z,10.03
2019-04-03T14:33:25.559Z,14.95
2019-04-03T14:35:56.740Z,14.13
2019-04-03T14:38:29.054Z,17.25
2019-04-03T14:41:00.811Z,11.55
2019-04-03T14:43:33.679Z,7.45
2019-04-03T14:46:05.039Z,10.63
2019-04-03T14:48:36.405Z,8.38
2019-04-03T14:51:10.868Z,10.40
2019-04-03T14:53:41.213Z,11.90
2019-04-03T14:56:12.784Z,20.60
2019-04-03T14:58:44.059Z,10.63
2019-04-03T15:01:15.446Z,11.38
2019-04-03T15:03:46.838Z,13.43
2019-04-03T15:06:18.214Z,14.55
2019-04-03T15:08:49.531Z,12.18
2019-04-03T15:11:21.973Z,8.50
2019-04-03T15:13:53.460Z,14.03
2019-04-03T15:16:24.782Z,7.87
2019-04-03T15:18:56.019Z,8.90
2019-04-03T15:21:27.519Z,6.33
2019-04-03T15:23:58.831Z,8.60
2019-04-03T15:26:30.433Z,11.18
2019-04-03T15:29:02.277Z,17.20
2019-04-03T15:31:33.661Z,20.25
2019-04-03T15:34:05.982Z,8.23
2019-04-03T15:36:37.727Z,12.20
2019-04-03T15:39:10.865Z,13.70
2019-04-03T15:41:42.796Z,15.23
2019-04-03T15:46:44.896Z,18.32
2019-04-03T15:49:16.422Z,14.15
2019-04-03T15:51:47.907Z,18.45
2019-04-03T15:54:21.351Z,19.57
2019-04-03T15:56:52.994Z,24.70
2019-04-03T16:01:55.226Z,14.58
2019-04-03T16:04:27.067Z,16.95
2019-04-03T16:07:01.232Z,20.32
2019-04-03T16:09:33.612Z,34.85
2019-04-03T16:12:06.484Z,16.57
2019-04-03T16:14:37.849Z,18.02
2019-04-03T16:17:09.025Z,30.05
2019-04-03T16:19:40.866Z,23.70
2019-04-03T16:22:13.646Z,18.87
2019-04-03T16:24:45.187Z,30.88
2019-04-03T16:27:16.478Z,33.85
2019-04-03T16:29:48.143Z,16.70
2019-04-03T16:32:19.681Z,22.87
2019-04-03T16:34:50.923Z,12.18
2019-04-03T16:37:22.769Z,25.27
2019-04-03T16:39:54.871Z,26.27
2019-04-03T16:42:26.294Z,20.12
2019-04-03T16:44:58.384Z,19.82
2019-04-03T16:47:30.204Z,17.35
2019-04-03T16:50:01.523Z,13.48
2019-04-03T16:52:35.834Z,17.85
2019-04-03T16:55:06.734Z,28.10
2019-04-03T16:57:38.238Z,25.20
2019-04-03T17:00:10.349Z,16.07
2019-04-03T17:02:41.778Z,21.82
2019-04-03T17:05:13.404Z,18.23
2019-04-03T17:07:45.070Z,19.90
2019-04-03T17:10:16.463Z,28.23
2019-04-03T17:12:50.107Z,20.40
2019-04-03T17:15:21.421Z,22.82
2019-04-03T17:17:52.706Z,24.98
2019-04-03T17:20:24.764Z,26.50
2019-04-03T17:22:56.086Z,16.60
2019-04-03T17:25:33.179Z,22.80
2019-04-03T17:28:05.786Z,29.25
2019-04-03T17:30:33.397Z,19.23
2019-04-03T17:33:04.754Z,30.37
2019-04-03T17:35:36.461Z,17.87
2019-04-03T17:38:07.920Z,27.13
2019-04-03T17:40:39.267Z,24.82
2019-04-03T17:43:12.825Z,16.95
2019-04-03T17:45:46.136Z,22.40
2019-04-03T17:48:16.473Z,24.75
2019-04-03T17:50:48.688Z,22.35
2019-04-03T17:53:19.920Z,24.47
2019-04-03T17:55:51.483Z,29.50
2019-04-03T17:58:22.716Z,44.60
2019-04-03T18:00:54.195Z,55.08
2019-04-03T18:03:25.565Z,43.25
2019-04-03T18:05:57.557Z,50.85
2019-04-03T18:10:59.318Z,35.10
2019-04-03T18:13:30.665Z,27.07
2019-04-03T18:16:03.105Z,34.33
2019-04-03T18:18:34.457Z,34.25
2019-04-03T18:21:05.844Z,29.98
2019-04-03T18:23:37.178Z,26.55
2019-04-03T18:26:08.553Z,40.92
2019-04-03T18:28:39.943Z,35.17
2019-04-03T18:31:11.842Z,36.50
2019-04-03T18:33:44.365Z,52.05
2019-04-03T18:36:16.774Z,66.57
2019-04-03T18:38:49.235Z,40.63
2019-04-03T18:41:20.570Z,39.85
2019-04-03T18:43:54.167Z,27.85
2019-04-03T18:46:31.957Z,23.57
2019-04-03T18:49:01.609Z,19.55
2019-04-03T18:51:32.383Z,29.32
2019-04-03T18:54:03.702Z,26.85
2019-04-03T18:56:35.078Z,49.48
2019-04-03T18:59:06.528Z,59.65
2019-04-03T19:01:38.100Z,54.75
2019-04-03T19:04:09.524Z,46.33
2019-04-03T19:06:42.958Z,56.68
2019-04-03T19:09:16.252Z,52.65
2019-04-03T19:11:47.586Z,45.92
2019-04-03T19:14:27.154Z,43.33
2019-04-03T19:16:54.465Z,64.42
2019-04-03T19:19:26.574Z,74.97
2019-04-03T19:21:57.878Z,82.47
2019-04-03T19:24:29.240Z,77.58
2019-04-03T19:27:02.176Z,88.03
2019-04-03T19:29:33.911Z,81.05
2019-04-03T19:32:06.872Z,92.12
2019-04-03T19:34:38.252Z,112.47
2019-04-03T19:37:09.597Z,84.65
2019-04-03T19:39:41.133Z,104.60
2019-04-03T19:42:13.320Z,109.55
2019-04-03T19:44:46.948Z,132.87
2019-04-03T19:47:19.504Z,144.30
2019-04-03T19:49:50.890Z,158.57
2019-04-03T19:52:22.236Z,163.12
2019-04-03T19:54:53.515Z,171.60
2019-04-03T19:57:24.928Z,168.13
2019-04-03T19:59:58.001Z,157.75
2019-04-03T20:02:30.457Z,143.43
2019-04-03T20:05:01.806Z,132.07
2019-04-03T20:07:33.178Z,114.20
2019-04-03T20:10:07.226Z,100.50
2019-04-03T20:12:38.710Z,102.75
2019-04-03T20:15:11.248Z,110.88
2019-04-03T20:17:42.619Z,100.27
2019-04-03T20:20:14.033Z,94.25
2019-04-03T20:22:45.438Z,97.82
2019-04-03T20:25:16.763Z,95.17
2019-04-03T20:27:51.376Z,101.60
2019-04-03T20:30:21.203Z,100.67
2019-04-03T20:32:52.555Z,87.95
2019-04-03T20:35:23.922Z,76.50
2019-04-03T20:37:57.148Z,68.47
2019-04-03T20:40:28.301Z,71.40
2019-04-03T20:43:01.370Z,62.50
2019-04-03T20:45:32.777Z,58.73
2019-04-03T20:48:04.095Z,51.28
2019-04-03T20:50:37.738Z,52.08
2019-04-03T20:53:09.848Z,48.02
2019-04-03T20:55:41.223Z,55.50
2019-04-03T20:58:12.570Z,49.53
2019-04-03T21:00:43.904Z,42.00
2019-04-03T21:03:15.298Z,44.38
2019-04-03T21:05:48.534Z,50.38
2019-04-03T21:08:19.651Z,44.05
2019-04-03T21:10:51.021Z,45.23
2019-04-03T21:13:22.517Z,44.08
2019-04-03T21:15:54.947Z,42.35
2019-04-03T21:18:26.296Z,29.90
2019-04-03T21:21:01.381Z,42.05
2019-04-03T21:23:33.496Z,51.90
2019-04-03T21:26:06.820Z,51.53
2019-04-03T21:28:40.782Z,40.65
2019-04-03T21:31:11.082Z,38.73
2019-04-03T21:33:44.923Z,34.92
2019-04-03T21:36:15.499Z,31.57
2019-04-03T21:38:46.822Z,44.55
2019-04-03T21:41:20.498Z,37.60
2019-04-03T21:43:51.210Z,42.88
2019-04-03T21:46:22.552Z,55.67
2019-04-03T21:48:53.938Z,45.80
2019-04-03T21:51:25.222Z,54.10
2019-04-03T21:53:56.666Z,53.30
2019-04-03T21:56:28.004Z,50.20
2019-04-03T21:58:59.348Z,38.83
2019-04-03T22:01:30.734Z,49.18
2019-04-03T22:04:02.098Z,38.55
2019-04-03T22:06:33.451Z,30.70
2019-04-03T22:09:08.061Z,28.77
2019-04-03T22:11:39.588Z,29.67
2019-04-03T22:14:11.602Z,26.82
2019-04-03T22:16:43.054Z,32.58
2019-04-03T22:19:14.405Z,32.30
2019-04-03T22:21:45.793Z,46.45
2019-04-03T22:24:17.132Z,30.92
2019-04-03T22:26:48.415Z,34.60
2019-04-03T22:29:20.443Z,30.35
2019-04-03T22:31:54.419Z,25.77
2019-04-03T22:34:25.166Z,33.55
2019-04-03T22:36:56.501Z,27.40
2019-04-03T22:39:27.847Z,21.37
2019-04-03T22:41:59.098Z,25.32
2019-04-03T22:44:30.464Z,21.82
2019-04-03T22:47:02.367Z,16.48
2019-04-03T22:49:33.981Z,21.02
2019-04-03T22:52:06.882Z,24.05
2019-04-03T22:54:38.578Z,19.62
2019-04-03T22:57:09.817Z,23.60
2019-04-03T22:59:41.172Z,26.75
2019-04-03T23:02:13.826Z,17.92
2019-04-03T23:04:46.347Z,20.00
2019-04-03T23:07:20.597Z,24.02
2019-04-03T23:09:50.679Z,27.85
2019-04-03T23:12:22.026Z,49.27
2019-04-03T23:14:53.417Z,56.33
2019-04-03T23:17:24.882Z,42.15
2019-04-03T23:19:56.250Z,22.22
2019-04-03T23:22:27.495Z,35.03
2019-04-03T23:24:59.531Z,24.30
2019-04-03T23:27:32.981Z,33.50
2019-04-03T23:30:06.069Z,34.25
2019-04-03T23:32:37.419Z,26.55
2019-04-03T23:35:08.774Z,21.80
2019-04-03T23:37:41.146Z,21.20
2019-04-03T23:40:12.498Z,19.52
2019-04-03T23:42:43.747Z,18.90
2019-04-03T23:45:14.961Z,15.32
2019-04-03T23:47:46.980Z,25.57
2019-04-03T23:50:19.993Z,23.47
2019-04-03T23:52:51.969Z,19.27
2019-04-03T23:55:23.294Z,19.15
2019-04-03T23:57:54.586Z,20.12
